Time;durP1;ratioP1;P1;durP2;ratioP2;P2;SDS_P1;SDS_P2;PMS_P1;PMS_P2;Temp;Humidity;BMP_temperature;BMP_pressure;BME280_temperature;BME280_humidity;BME280_pressure;Samples;Min_cycle;Max_cycle;Signal;HPM_P1;HPM_P2
2023/05/05 00:01:04;;;;;;;2.40;1.67;;;;;;;15.80;54.58;99105.09;4975386;28;20038;-82
2023/05/05 00:03:29;;;;;;;2.78;1.70;;;;;;;15.81;54.39;99102.28;4974963;28;20120;-76
2023/05/05 00:05:55;;;;;;;2.70;1.95;;;;;;;15.73;54.28;99089.81;4975223;28;20070;-80
2023/05/05 00:08:21;;;;;;;2.67;1.90;;;;;;;15.75;54.33;99094.94;4943097;28;20045;-81
2023/05/05 00:10:47;;;;;;;2.78;1.63;;;;;;;15.76;54.38;99101.84;4959314;28;20121;-80
2023/05/05 00:13:13;;;;;;;3.35;1.75;;;;;;;15.75;54.23;99094.94;4975168;28;20553;-80
2023/05/05 00:15:40;;;;;;;2.83;1.90;;;;;;;15.74;54.12;99099.34;4959458;28;20043;-81
2023/05/05 00:18:06;;;;;;;2.60;1.70;;;;;;;15.73;54.30;99097.72;4975552;28;20124;-82
2023/05/05 00:20:31;;;;;;;2.90;2.10;;;;;;;15.71;54.39;99083.84;4975058;28;20046;-81
2023/05/05 00:22:57;;;;;;;1.80;1.50;;;;;;;15.73;54.23;99086.34;4975133;28;20498;-81
2023/05/05 00:25:22;;;;;;;5.22;1.88;;;;;;;15.71;54.38;99083.84;4992430;28;20105;-80
2023/05/05 00:27:48;;;;;;;2.20;1.70;;;;;;;15.72;54.46;99076.81;4958885;28;20045;-81
2023/05/05 00:30:13;;;;;;;2.63;1.52;;;;;;;15.71;54.23;99070.69;4975435;28;20042;-82
2023/05/05 00:32:39;;;;;;;3.03;1.70;;;;;;;15.72;54.30;99080.25;4974583;28;20061;-82
2023/05/05 00:35:05;;;;;;;2.97;1.80;;;;;;;15.71;54.26;99073.31;4975428;28;20038;-81
2023/05/05 00:37:30;;;;;;;2.20;1.65;;;;;;;15.71;54.12;99064.59;4992451;28;20037;-81
2023/05/05 00:39:56;;;;;;;2.42;1.88;;;;;;;15.71;54.22;99070.69;4942957;28;20038;-82
2023/05/05 00:42:22;;;;;;;2.83;1.60;;;;;;;15.72;54.11;99067.09;4942572;28;20074;-81
2023/05/05 00:44:47;;;;;;;2.85;1.70;;;;;;;15.71;54.22;99069.88;4992604;28;20050;-81
2023/05/05 00:47:13;;;;;;;2.80;1.70;;;;;;;15.71;53.98;99068.06;4994392;28;20080;-81
2023/05/05 00:49:38;;;;;;;2.95;1.70;;;;;;;15.72;54.00;99072.38;4978835;28;20050;-81
2023/05/05 00:52:04;;;;;;;2.20;1.60;;;;;;;15.73;53.97;99068.78;4978318;28;20038;-80
2023/05/05 00:54:29;;;;;;;1.90;1.50;;;;;;;15.72;53.96;99064.47;4995902;28;20034;-81
2023/05/05 00:56:55;;;;;;;2.63;1.42;;;;;;;15.73;53.90;99065.28;4978380;28;20494;-81
2023/05/05 00:59:20;;;;;;;2.13;1.63;;;;;;;15.73;53.68;99060.88;4978448;28;20050;-81
2023/05/05 01:01:46;;;;;;;2.75;1.60;;;;;;;15.71;53.91;99052.28;4945617;28;20049;-81
2023/05/05 01:04:11;;;;;;;2.13;1.25;;;;;;;15.73;53.97;99047.72;4978185;28;20050;-81
2023/05/05 01:06:58;;;;;;;4.10;1.67;;;;;;;15.78;53.73;99057.00;4995596;28;20177;-81
2023/05/05 01:09:36;;;;;;;1.90;1.58;;;;;;;15.78;53.82;99051.72;4995430;28;20062;-80
2023/05/05 01:12:13;;;;;;;2.17;1.50;;;;;;;15.76;53.83;99053.66;4995690;28;20038;-80
2023/05/05 01:14:44;;;;;;;2.03;1.60;;;;;;;15.77;53.87;99044.84;4995945;28;20294;-81
2023/05/05 01:17:19;;;;;;;2.58;1.77;;;;;;;15.78;53.69;99055.22;4962312;28;20101;-80
2023/05/05 01:19:53;;;;;;;2.47;1.42;;;;;;;15.80;53.64;99044.53;4962979;28;20401;-81
2023/05/05 01:22:22;;;;;;;3.28;1.80;;;;;;;15.76;53.71;99038.69;4995610;28;20121;-80
2023/05/05 01:25:07;;;;;;;;;;;;;;;15.80;53.67;99041.91;4963092;28;20034;-80
2023/05/05 01:28:03;;;;;;;3.17;1.42;;;;;;;15.76;53.82;99041.31;4977893;28;20297;-80
2023/05/05 01:30:50;;;;;;;2.85;1.40;;;;;;;15.74;53.98;99032.75;4995372;28;20034;-80
2023/05/05 01:33:19;;;;;;;1.83;1.30;;;;;;;15.73;53.77;99028.44;4995477;28;20453;-80
2023/05/05 01:35:49;;;;;;;;;;;;;;;15.73;53.83;99023.19;4978315;28;20508;-79
2023/05/05 01:38:22;;;;;;;2.22;1.70;;;;;;;15.68;53.94;99026.22;4977676;28;20274;-81
2023/05/05 01:41:09;;;;;;;2.45;1.50;;;;;;;15.66;54.02;99025.56;4961005;28;20038;-81
2023/05/05 01:43:35;;;;;;;2.90;1.48;;;;;;;15.65;54.24;99038.84;4962869;28;20041;-82
2023/05/05 01:46:00;;;;;;;2.55;1.50;;;;;;;15.58;54.00;99027.25;4961553;28;20034;-81
2023/05/05 01:48:28;;;;;;;3.63;1.65;;;;;;;15.62;53.95;99037.31;4977564;28;20066;-81
2023/05/05 01:50:54;;;;;;;2.45;1.58;;;;;;;15.61;54.04;99032.22;4977753;28;20577;-81
2023/05/05 01:53:19;;;;;;;2.55;1.58;;;;;;;15.59;53.98;99029.72;4977053;28;20054;-81
2023/05/05 01:55:45;;;;;;;1.92;1.50;;;;;;;15.58;54.21;99035.97;4961095;28;20041;-82
2023/05/05 01:58:12;;;;;;;2.65;1.85;;;;;;;15.56;54.07;99030.03;4960669;28;20106;-81
2023/05/05 02:00:37;;;;;;;3.25;1.55;;;;;;;15.52;54.03;99026.00;4961238;28;20031;-82
2023/05/05 02:03:03;;;;;;;2.33;1.70;;;;;;;15.52;54.01;99020.75;4945044;28;20046;-82
2023/05/05 02:05:28;;;;;;;3.63;1.73;;;;;;;15.52;54.29;99031.28;4994361;28;20054;-82
2023/05/05 02:07:56;;;;;;;2.55;1.52;;;;;;;15.48;54.36;99028.09;4961346;28;20042;-81
2023/05/05 02:10:21;;;;;;;2.03;1.60;;;;;;;15.49;54.25;99031.56;4944966;28;20049;-81
2023/05/05 02:12:47;;;;;;;2.58;1.52;;;;;;;15.45;54.26;99027.53;4977090;28;20030;-81
2023/05/05 02:15:13;;;;;;;2.28;1.75;;;;;;;15.46;54.41;99034.47;4944909;28;20434;-83
2023/05/05 02:17:42;;;;;;;3.95;2.00;;;;;;;15.45;54.51;99030.16;4976980;28;20474;-81
2023/05/05 02:20:09;;;;;;;4.85;2.85;;;;;;;15.41;54.36;99024.34;4976902;28;20513;-81
2023/05/05 02:22:35;;;;;;;3.50;1.80;;;;;;;15.42;54.42;99019.91;4976898;28;20497;-81
2023/05/05 02:25:00;;;;;;;3.03;1.88;;;;;;;15.44;54.45;99024.09;4960644;28;20270;-81
2023/05/05 02:27:26;;;;;;;6.93;1.80;;;;;;;15.44;54.48;99028.53;4975744;28;20108;-82
2023/05/05 02:29:55;;;;;;;2.83;1.90;;;;;;;15.42;54.67;99019.91;4976640;28;20035;-81
2023/05/05 02:32:36;;;;;;;3.13;1.75;;;;;;;15.37;54.53;99021.19;4960167;28;20463;-82
2023/05/05 02:35:16;;;;;;;2.88;1.98;;;;;;;15.36;54.53;99016.06;4978268;28;20065;-81
2023/05/05 02:37:50;;;;;;;2.30;1.60;;;;;;;15.34;54.43;99016.22;4944729;28;20030;-82
2023/05/05 02:40:18;;;;;;;3.65;2.00;;;;;;;15.37;54.66;99012.47;4944464;28;20034;-83
2023/05/05 02:42:45;;;;;;;2.20;1.60;;;;;;;15.34;54.60;99018.03;4944588;28;20129;-82
2023/05/05 02:45:15;;;;;;;2.55;1.77;;;;;;;15.35;54.54;99010.00;4960387;28;20049;-79
2023/05/05 02:47:40;;;;;;;4.22;1.52;;;;;;;15.32;54.67;99009.41;4976904;28;20100;-82
2023/05/05 02:50:07;;;;;;;3.08;1.60;;;;;;;15.31;54.57;99008.59;4960080;28;20034;-81
2023/05/05 02:52:32;;;;;;;2.60;1.52;;;;;;;15.28;54.56;98995.72;4944475;28;20133;-79
2023/05/05 02:54:58;;;;;;;3.25;1.50;;;;;;;15.28;54.44;99006.25;4976229;28;20473;-82
2023/05/05 02:57:40;;;;;;;2.45;1.52;;;;;;;15.29;54.42;98997.41;4960215;28;20546;-82
2023/05/05 03:00:21;;;;;;;3.42;1.60;;;;;;;15.31;54.41;99000.72;4976533;28;20034;-80
2023/05/05 03:02:55;;;;;;;2.10;1.48;;;;;;;15.31;54.34;98998.06;4959423;28;20054;-82
2023/05/05 03:05:26;;;;;;;2.78;1.52;;;;;;;15.29;54.36;98983.41;4993810;28;20038;-82
2023/05/05 03:08:16;;;;;;;2.20;1.67;;;;;;;15.33;54.23;99000.56;4960454;28;20114;-81
2023/05/05 03:11:00;;;;;;;2.53;1.23;;;;;;;15.34;54.15;98991.72;4936751;29;20504;-83
2023/05/05 03:13:25;;;;;;;3.72;1.50;;;;;;;15.38;54.12;98998.34;4921580;29;20045;-83
2023/05/05 03:15:51;;;;;;;2.42;1.60;;;;;;;15.38;53.80;99001.78;4920649;29;20043;-81
2023/05/05 03:18:17;;;;;;;2.63;1.40;;;;;;;15.43;53.60;98997.91;4935418;29;20126;-82
2023/05/05 03:20:43;;;;;;;2.45;1.60;;;;;;;15.50;53.38;98986.69;4905064;29;20039;-80
2023/05/05 03:23:09;;;;;;;3.80;1.30;;;;;;;15.59;53.21;98999.94;4952218;29;20062;-80
2023/05/05 03:25:47;;;;;;;2.22;1.38;;;;;;;15.62;53.08;98992.59;4920773;29;20047;-80
2023/05/05 03:28:16;;;;;;;1.73;1.40;;;;;;;15.70;52.88;98997.16;4921501;29;20089;-80
2023/05/05 03:30:41;;;;;;;2.15;1.30;;;;;;;15.78;52.79;99007.84;4951984;29;20122;-79
2023/05/05 03:33:08;;;;;;;1.63;1.33;;;;;;;15.89;52.39;99007.66;4936057;29;20047;-80
2023/05/05 03:35:34;;;;;;;2.03;1.20;;;;;;;16.15;51.98;99008.78;4920788;29;20450;-81
2023/05/05 03:37:59;;;;;;;3.10;1.45;;;;;;;16.27;51.53;98997.91;4920188;29;20047;-80
2023/05/05 03:40:25;;;;;;;3.17;1.40;;;;;;;16.51;50.94;99012.34;4952050;29;20046;-81
2023/05/05 03:42:51;;;;;;;2.38;1.55;;;;;;;16.61;50.67;99012.28;4935710;29;20483;-79
2023/05/05 03:45:16;;;;;;;1.73;1.25;;;;;;;16.78;50.07;99008.81;4952804;29;20167;-79
2023/05/05 03:47:42;;;;;;;3.58;1.10;;;;;;;17.05;49.52;99014.19;4955822;28;20042;-80
2023/05/05 03:50:07;;;;;;;2.53;1.23;;;;;;;17.16;49.33;99011.31;4993438;28;20042;-80
2023/05/05 03:52:33;;;;;;;2.13;1.38;;;;;;;17.50;48.63;99019.31;4975182;28;20185;-80
2023/05/05 03:54:59;;;;;;;2.58;1.50;;;;;;;18.05;47.43;99017.34;4992717;28;20047;-80
2023/05/05 03:57:25;;;;;;;2.22;1.17;;;;;;;18.47;46.46;99028.91;4959006;28;20100;-79
2023/05/05 03:59:51;;;;;;;1.98;1.20;;;;;;;19.01;45.09;99028.53;4959619;28;20458;-80
2023/05/05 04:02:17;;;;;;;1.95;1.40;;;;;;;19.66;43.51;99028.50;4943076;28;20047;-81
2023/05/05 04:04:42;;;;;;;2.35;1.33;;;;;;;20.27;42.24;99027.19;4975470;28;20057;-81
2023/05/05 04:07:08;;;;;;;1.83;1.30;;;;;;;20.87;40.94;99033.69;4975079;28;20046;-79
2023/05/05 04:09:33;;;;;;;1.90;1.30;;;;;;;21.53;39.65;99043.81;4959554;28;20046;-80
2023/05/05 04:11:59;;;;;;;1.75;1.10;;;;;;;22.21;38.27;99034.75;4992551;28;20518;-79
2023/05/05 04:14:25;;;;;;;3.28;1.30;;;;;;;22.65;37.29;99041.06;4943252;28;20034;-81
2023/05/05 04:16:50;;;;;;;2.58;1.13;;;;;;;23.10;36.66;99040.91;4975233;28;20042;-80
2023/05/05 04:19:16;;;;;;;2.03;1.25;;;;;;;23.29;36.10;99047.44;4992364;28;20413;-80
2023/05/05 04:21:41;;;;;;;1.65;1.08;;;;;;;23.94;34.93;99042.81;4994188;28;20042;-80
2023/05/05 04:24:07;;;;;;;2.22;1.23;;;;;;;24.68;33.57;99043.97;4979096;28;20101;-81
2023/05/05 04:26:33;;;;;;;3.20;1.02;;;;;;;25.54;32.72;99044.28;4962608;28;20065;-81
2023/05/05 04:28:58;;;;;;;2.65;1.20;;;;;;;26.29;31.35;99043.97;4962858;28;20042;-79
2023/05/05 04:31:24;;;;;;;2.10;1.10;;;;;;;27.01;30.02;99039.28;4978455;28;20505;-79
2023/05/05 04:33:49;;;;;;;2.17;1.20;;;;;;;27.65;28.90;99043.75;4979001;28;20046;-79
2023/05/05 04:36:15;;;;;;;3.13;0.80;;;;;;;28.31;28.15;99043.03;4996080;28;20038;-79
2023/05/05 04:38:40;;;;;;;2.80;0.98;;;;;;;28.98;26.95;99044.84;4996052;28;20034;-82
2023/05/05 04:41:06;;;;;;;2.25;1.00;;;;;;;29.63;26.63;99039.72;4996093;28;20433;-80
2023/05/05 04:43:32;;;;;;;4.97;1.00;;;;;;;30.24;25.28;99032.16;4975899;28;20084;-81
2023/05/05 04:45:57;;;;;;;4.43;0.95;;;;;;;30.80;24.53;99040.50;4998094;28;20033;-81
2023/05/05 04:48:23;;;;;;;2.53;1.00;;;;;;;31.54;23.86;99037.72;4965704;28;20425;-82
2023/05/05 04:50:48;;;;;;;2.72;1.05;;;;;;;31.84;23.39;99027.63;5015275;28;20042;-81
2023/05/05 04:53:13;;;;;;;1.90;1.00;;;;;;;32.35;22.53;99032.88;5015233;28;20413;-75
2023/05/05 04:55:39;;;;;;;3.75;1.00;;;;;;;32.55;22.17;99024.19;4997359;28;20042;-75
2023/05/05 04:58:05;;;;;;;2.92;0.90;;;;;;;33.11;22.76;99029.31;4981337;28;20108;-72
2023/05/05 05:00:30;;;;;;;6.15;0.80;;;;;;;33.50;23.21;99037.22;4997076;28;20038;-71
2023/05/05 05:02:56;;;;;;;3.42;1.20;;;;;;;34.05;22.32;99037.81;4998124;28;20475;-74
2023/05/05 05:05:22;;;;;;;5.57;1.08;;;;;;;34.43;22.68;99028.47;4981645;28;20042;-74
2023/05/05 05:07:47;;;;;;;4.38;1.30;;;;;;;34.87;21.66;99027.25;4981733;28;20413;-72
2023/05/05 05:10:14;;;;;;;2.78;1.00;;;;;;;35.10;21.28;99036.72;5019394;28;20045;-74
2023/05/05 05:12:39;;;;;;;5.00;1.00;;;;;;;35.66;21.01;99037.75;4961633;28;20042;-78
2023/05/05 05:15:05;;;;;;;7.30;1.00;;;;;;;36.16;20.36;99040.63;4961517;28;20119;-79
2023/05/05 05:17:31;;;;;;;6.75;0.90;;;;;;;36.60;19.77;99036.34;4995906;28;20053;-77
2023/05/05 05:20:00;;;;;;;10.68;1.20;;;;;;;37.15;18.90;99039.78;4982124;28;20478;-81
2023/05/05 05:22:25;;;;;;;12.02;1.38;;;;;;;37.51;19.54;99044.88;4996174;28;20038;-77
2023/05/05 05:24:51;;;;;;;9.23;1.15;;;;;;;37.63;19.42;99042.59;4961581;28;20481;-73
2023/05/05 05:27:16;;;;;;;6.03;1.10;;;;;;;37.72;19.04;99039.25;4995143;28;20042;-76
2023/05/05 05:29:42;;;;;;;7.43;1.00;;;;;;;37.77;19.18;99045.47;4961170;28;20082;-75
2023/05/05 05:32:08;;;;;;;8.65;1.20;;;;;;;37.87;19.08;99030.13;4981953;28;20118;-74
2023/05/05 05:34:34;;;;;;;30.75;1.67;;;;;;;37.87;18.84;99032.84;4960940;28;20121;-80
2023/05/05 05:37:00;;;;;;;17.10;1.60;;;;;;;37.76;19.03;99035.66;4994219;28;20129;-77
2023/05/05 05:39:26;;;;;;;12.00;1.50;;;;;;;38.21;19.05;99026.44;4977812;28;20051;-77
2023/05/05 05:41:51;;;;;;;13.57;1.48;;;;;;;38.31;19.43;99045.41;4978027;28;20038;-75
2023/05/05 05:44:17;;;;;;;8.05;1.33;;;;;;;38.35;18.97;99041.78;4996253;28;20045;-75
2023/05/05 05:46:42;;;;;;;11.73;1.40;;;;;;;38.48;18.71;99036.72;4964969;28;20520;-79
2023/05/05 05:49:08;;;;;;;13.63;1.17;;;;;;;38.64;18.70;99048.25;4997366;28;20046;-76
2023/05/05 05:51:33;;;;;;;7.15;1.20;;;;;;;38.77;18.50;99052.94;5014606;28;20038;-79
2023/05/05 05:53:59;;;;;;;5.90;1.08;;;;;;;38.69;18.62;99046.22;4997398;28;20456;-78
2023/05/05 05:56:24;;;;;;;6.68;0.90;;;;;;;38.60;18.61;99042.50;4982311;28;20037;-82
2023/05/05 05:58:50;;;;;;;6.35;1.20;;;;;;;38.68;18.30;99047.34;4997189;28;20497;-77
2023/05/05 06:01:15;;;;;;;12.40;1.20;;;;;;;38.56;18.53;99049.69;5015453;28;20448;-78
2023/05/05 06:03:41;;;;;;;8.38;1.10;;;;;;;38.11;19.04;99055.44;4980422;28;20421;-78
2023/05/05 06:06:06;;;;;;;5.50;1.08;;;;;;;38.28;19.08;99044.06;4964196;28;20042;-79
2023/05/05 06:08:32;;;;;;;3.50;0.90;;;;;;;38.61;18.46;99049.59;5014266;28;20038;-82
2023/05/05 06:10:59;;;;;;;4.38;0.90;;;;;;;38.76;18.41;99054.03;4996693;28;20096;-78
2023/05/05 06:13:24;;;;;;;3.83;0.90;;;;;;;38.88;18.28;99048.94;5013308;28;20045;-77
2023/05/05 06:15:50;;;;;;;4.22;1.00;;;;;;;38.59;18.56;99056.44;4980860;28;20041;-81
2023/05/05 06:18:16;;;;;;;7.65;0.90;;;;;;;38.44;18.52;99057.47;4999264;28;20044;-78
2023/05/05 06:20:42;;;;;;;3.47;0.80;;;;;;;38.40;18.62;99056.44;5000005;28;20498;-80
2023/05/05 06:23:07;;;;;;;5.43;0.90;;;;;;;38.54;18.61;99060.09;4968387;28;20045;-78
2023/05/05 06:25:33;;;;;;;4.00;1.02;;;;;;;38.52;18.59;99065.00;4969904;28;20509;-79
2023/05/05 06:27:58;;;;;;;2.58;0.80;;;;;;;38.69;18.54;99059.06;4975633;28;20038;-82
2023/05/05 06:30:25;;;;;;;4.32;0.80;;;;;;;38.68;18.63;99066.44;4977855;28;20034;-81
2023/05/05 06:32:50;;;;;;;3.30;0.90;;;;;;;38.23;18.71;99065.13;4960816;28;20042;-79
2023/05/05 06:35:16;;;;;;;7.35;1.20;;;;;;;37.90;19.23;99059.50;4960409;28;20045;-76
2023/05/05 06:37:43;;;;;;;5.32;0.90;;;;;;;37.97;19.21;99065.41;4976604;28;20034;-79
2023/05/05 06:40:09;;;;;;;5.50;1.35;;;;;;;37.99;19.34;99064.00;4960777;28;20038;-78
2023/05/05 06:42:35;;;;;;;3.25;1.00;;;;;;;38.10;19.02;99059.25;4978258;28;20461;-86
2023/05/05 06:45:03;;;;;;;6.63;1.20;;;;;;;38.25;19.53;99060.19;4999152;28;20105;-88
2023/05/05 06:47:28;;;;;;;9.10;1.00;;;;;;;38.56;18.94;99063.31;4989548;28;20494;-85
2023/05/05 06:49:53;;;;;;;11.20;1.20;;;;;;;38.78;18.85;99064.66;4995686;28;20045;-80
2023/05/05 06:52:19;;;;;;;6.03;0.90;;;;;;;38.94;18.84;99060.59;4960502;28;20074;-79
2023/05/05 06:54:44;;;;;;;3.42;0.90;;;;;;;39.10;18.65;99060.38;4975379;28;20046;-78
2023/05/05 06:57:10;;;;;;;8.48;1.00;;;;;;;39.22;18.55;99058.78;4993037;28;20049;-77
2023/05/05 06:59:38;;;;;;;4.60;1.00;;;;;;;39.39;18.46;99066.41;5010635;28;20033;-78
2023/05/05 07:02:04;;;;;;;5.35;0.80;;;;;;;39.48;18.42;99069.25;5012965;28;20038;-77
2023/05/05 07:04:30;;;;;;;2.45;0.80;;;;;;;39.55;18.29;99071.63;4994852;28;20045;-78
2023/05/05 07:06:57;;;;;;;2.30;0.80;;;;;;;39.60;18.33;99058.69;4994373;28;20099;-78
2023/05/05 07:09:22;;;;;;;7.85;0.80;;;;;;;39.72;18.04;99068.31;4963144;28;20048;-79
2023/05/05 07:11:48;;;;;;;2.80;0.90;;;;;;;39.63;18.28;99065.44;5011844;28;20030;-81
2023/05/05 07:14:13;;;;;;;7.43;0.95;;;;;;;39.54;18.33;99067.28;4979368;28;20049;-78
2023/05/05 07:16:39;;;;;;;2.17;0.93;;;;;;;39.45;18.32;99073.38;4963500;28;20065;-79
2023/05/05 07:19:05;;;;;;;3.38;0.80;;;;;;;39.34;18.39;99071.16;4995738;28;20045;-79
2023/05/05 07:21:32;;;;;;;4.90;0.90;;;;;;;39.31;18.48;99071.75;4995271;28;20088;-78
2023/05/05 07:23:57;;;;;;;3.78;1.00;;;;;;;39.20;18.46;99060.19;4979079;28;20117;-77
2023/05/05 07:26:23;;;;;;;3.70;1.10;;;;;;;39.15;18.22;99063.03;4995037;28;20042;-78
2023/05/05 07:28:50;;;;;;;2.22;1.30;;;;;;;39.11;18.63;99061.97;4979203;28;20046;-79
2023/05/05 07:31:18;;;;;;;2.40;1.15;;;;;;;38.72;18.97;99072.13;4994555;28;20189;-77
2023/05/05 07:33:44;;;;;;;1.60;1.00;;;;;;;38.51;18.96;99068.84;4995554;28;20049;-79
2023/05/05 07:36:10;;;;;;;2.73;1.03;;;;;;;38.59;19.25;99065.47;4979058;28;20046;-79
2023/05/05 07:38:35;;;;;;;2.38;1.13;;;;;;;38.60;19.27;99066.25;4995511;28;20409;-77
2023/05/05 07:41:01;;;;;;;3.28;1.10;;;;;;;38.62;18.97;99064.91;5012943;28;20394;-80
2023/05/05 07:43:27;;;;;;;1.98;1.10;;;;;;;38.66;19.30;99076.81;4963074;28;20040;-78
2023/05/05 07:45:52;;;;;;;2.03;1.20;;;;;;;38.72;18.94;99078.38;4963058;28;20049;-79
2023/05/05 07:48:18;;;;;;;2.78;1.40;;;;;;;38.77;19.19;99071.22;4962983;28;20044;-78
2023/05/05 07:50:43;;;;;;;1.77;1.00;;;;;;;38.36;19.49;99075.31;4962450;28;20049;-79
2023/05/05 07:53:09;;;;;;;2.08;1.17;;;;;;;37.77;19.94;99069.97;4994828;28;20042;-78
2023/05/05 07:55:34;;;;;;;2.13;1.20;;;;;;;37.64;19.78;99073.38;4977813;28;20121;-81
2023/05/05 07:58:00;;;;;;;1.60;1.02;;;;;;;37.40;20.00;99087.75;4994812;28;20056;-79
2023/05/05 08:00:25;;;;;;;4.05;1.17;;;;;;;36.99;20.47;99081.78;5012546;28;20034;-78
2023/05/05 08:02:51;;;;;;;2.60;1.13;;;;;;;36.50;20.73;99091.56;4978721;28;20041;-77
2023/05/05 08:05:16;;;;;;;2.35;1.15;;;;;;;35.86;21.59;99081.19;4995043;28;20058;-79
2023/05/05 08:07:42;;;;;;;1.48;1.15;;;;;;;35.23;22.43;99086.09;4994778;28;20481;-79
2023/05/05 08:10:09;;;;;;;2.78;1.33;;;;;;;34.82;22.67;99084.16;5012375;28;20046;-78
2023/05/05 08:12:35;;;;;;;3.42;1.40;;;;;;;34.41;23.33;99090.28;4978596;28;20030;-77
2023/05/05 08:15:00;;;;;;;4.03;1.33;;;;;;;34.24;23.11;99089.66;4978497;28;20107;-79
2023/05/05 08:17:26;;;;;;;3.28;1.30;;;;;;;33.83;24.12;99086.72;4978014;28;20034;-78
2023/05/05 08:19:52;;;;;;;8.07;1.60;;;;;;;33.90;23.62;99084.56;4979054;28;20120;-78
2023/05/05 08:22:17;;;;;;;3.00;1.30;;;;;;;33.80;23.40;99084.53;4978766;28;20026;-79
2023/05/05 08:24:45;;;;;;;2.45;1.35;;;;;;;33.80;24.22;99084.53;4978576;28;20138;-79
2023/05/05 08:27:10;;;;;;;3.30;1.48;;;;;;;33.83;24.14;99081.28;5012353;28;20080;-79
2023/05/05 08:29:36;;;;;;;3.13;1.60;;;;;;;33.88;24.42;99081.31;4978506;28;20450;-80
2023/05/05 08:32:01;;;;;;;3.83;2.03;;;;;;;34.23;23.24;99079.88;4962552;28;20104;-78
2023/05/05 08:34:27;;;;;;;3.90;1.63;;;;;;;34.52;23.24;99080.28;4995150;28;20046;-79
2023/05/05 08:36:52;;;;;;;4.43;1.70;;;;;;;34.50;22.41;99065.34;4978647;28;20092;-78
2023/05/05 08:39:18;;;;;;;8.13;1.50;;;;;;;33.76;23.46;99073.38;4994699;28;20382;-82
2023/05/05 08:41:43;;;;;;;5.22;1.67;;;;;;;34.05;23.14;99071.13;4962284;28;20041;-78
2023/05/05 08:44:09;;;;;;;7.25;1.60;;;;;;;33.87;23.42;99069.69;4994688;28;20049;-78
2023/05/05 08:46:35;;;;;;;4.45;1.40;;;;;;;34.24;23.13;99082.34;4995295;28;20061;-79
2023/05/05 08:49:02;;;;;;;2.55;1.30;;;;;;;34.37;23.02;99075.59;4962217;28;20128;-79
2023/05/05 08:51:30;;;;;;;1.95;1.20;;;;;;;34.56;23.00;99064.28;4979280;28;20038;-79
2023/05/05 08:54:02;;;;;;;2.60;1.30;;;;;;;34.61;23.20;99062.38;4978738;28;20048;-78
2023/05/05 08:56:32;;;;;;;6.47;1.30;;;;;;;34.68;23.34;99067.59;4962271;28;20092;-78
2023/05/05 08:58:58;;;;;;;3.53;1.55;;;;;;;34.78;22.89;99069.53;4977668;28;20046;-79
2023/05/05 09:01:23;;;;;;;5.03;1.60;;;;;;;34.83;22.81;99068.72;4994719;28;20041;-81
2023/05/05 09:03:49;;;;;;;4.07;1.30;;;;;;;34.91;22.99;99060.84;4977208;28;20065;-79
2023/05/05 09:06:15;;;;;;;3.42;1.38;;;;;;;34.89;23.15;99065.75;4978387;28;20108;-77
2023/05/05 09:08:41;;;;;;;6.32;1.60;;;;;;;34.39;23.86;99064.50;4997208;28;20049;-81
2023/05/05 09:11:06;;;;;;;3.15;1.30;;;;;;;33.97;24.25;99068.09;4982056;28;20494;-79
2023/05/05 09:13:32;;;;;;;3.78;1.40;;;;;;;33.58;24.63;99061.06;5015131;28;20045;-78
2023/05/05 09:15:57;;;;;;;2.30;1.40;;;;;;;33.49;24.78;99068.03;5015427;28;20057;-77
2023/05/05 09:18:23;;;;;;;4.20;1.50;;;;;;;33.81;24.48;99059.06;4997663;28;20042;-77
2023/05/05 09:20:49;;;;;;;3.47;1.50;;;;;;;33.30;24.32;99060.31;4997730;28;20037;-79
2023/05/05 09:23:15;;;;;;;2.00;1.45;;;;;;;33.32;24.92;99063.59;4981567;28;20045;-78
2023/05/05 09:25:43;;;;;;;3.63;1.40;;;;;;;33.45;24.65;99054.22;4981352;28;20042;-79
2023/05/05 09:28:10;;;;;;;2.30;1.40;;;;;;;33.44;24.62;99057.19;5015177;28;20450;-79
2023/05/05 09:30:36;;;;;;;3.45;1.65;;;;;;;32.95;25.03;99056.22;5015084;28;20038;-79
2023/05/05 09:33:02;;;;;;;3.08;1.30;;;;;;;33.02;24.90;99056.03;4965281;28;20108;-79
2023/05/05 09:35:27;;;;;;;4.65;1.45;;;;;;;32.64;24.90;99053.22;5014876;28;20099;-79
2023/05/05 09:37:53;;;;;;;3.25;1.30;;;;;;;32.39;25.79;99058.31;5014713;28;20512;-78
2023/05/05 09:40:19;;;;;;;3.95;1.48;;;;;;;32.26;25.55;99054.94;4964416;28;20573;-78
2023/05/05 09:42:44;;;;;;;3.17;1.50;;;;;;;32.41;24.61;99058.88;4980978;28;20030;-79
2023/05/05 09:45:19;;;;;;;6.05;1.20;;;;;;;32.37;24.80;99057.72;5014489;28;20081;-78
2023/05/05 09:47:45;;;;;;;1.95;1.02;;;;;;;32.31;24.79;99047.94;5014732;28;20493;-79
2023/05/05 09:50:14;;;;;;;3.05;1.27;;;;;;;32.26;24.88;99044.13;4980650;28;20097;-80
2023/05/05 09:52:40;;;;;;;4.68;1.20;;;;;;;32.12;25.11;99042.88;4997545;28;20110;-78
2023/05/05 09:55:07;;;;;;;4.55;1.10;;;;;;;32.10;25.30;99040.44;4980974;28;20115;-79
2023/05/05 09:57:33;;;;;;;2.20;1.20;;;;;;;32.12;25.57;99045.56;4981002;28;20084;-80
2023/05/05 10:00:00;;;;;;;4.05;1.40;;;;;;;32.20;25.30;99039.72;4997085;28;20501;-77
2023/05/05 10:02:33;;;;;;;2.42;1.10;;;;;;;32.00;25.67;99044.84;4996295;28;20072;-79
2023/05/05 10:05:28;;;;;;;3.47;1.20;;;;;;;31.91;25.81;99037.19;4964275;28;20128;-77
2023/05/05 10:07:53;;;;;;;2.00;1.30;;;;;;;31.76;26.17;99045.06;4937989;29;20035;-78
2023/05/05 10:10:19;;;;;;;3.15;1.40;;;;;;;31.67;26.15;99028.47;4906160;29;20223;-77
2023/05/05 10:12:46;;;;;;;3.05;1.35;;;;;;;31.64;26.25;99036.25;4921603;29;20043;-80
2023/05/05 10:15:12;;;;;;;2.38;1.25;;;;;;;31.42;26.34;99030.78;4921728;29;20076;-79
2023/05/05 10:17:55;;;;;;;3.72;1.23;;;;;;;30.98;27.01;99029.56;4922204;29;20066;-80
2023/05/05 10:20:21;;;;;;;5.47;1.20;;;;;;;30.85;27.08;99027.13;4921432;29;20134;-78
2023/05/05 10:22:53;;;;;;;3.88;1.42;;;;;;;30.73;27.38;99015.63;4921857;29;20118;-80
2023/05/05 10:25:25;;;;;;;2.95;1.30;;;;;;;30.76;27.09;99015.94;4922625;29;20062;-79
2023/05/05 10:27:52;;;;;;;4.63;1.20;;;;;;;30.56;27.49;99015.56;4922299;29;20054;-78
2023/05/05 10:30:27;;;;;;;2.05;1.20;;;;;;;30.38;28.09;99014.69;4937398;29;20057;-77
2023/05/05 10:33:06;;;;;;;6.72;1.27;;;;;;;30.33;27.90;99008.34;4921945;29;20570;-79
2023/05/05 10:35:32;;;;;;;6.10;1.50;;;;;;;30.27;27.34;99004.75;4953355;28;20043;-79
2023/05/05 10:37:57;;;;;;;5.78;1.42;;;;;;;30.28;27.44;99001.00;4905524;29;20041;-78
2023/05/05 10:40:23;;;;;;;2.88;1.30;;;;;;;30.07;27.96;98997.09;4936648;29;20043;-78
2023/05/05 10:42:49;;;;;;;5.30;1.10;;;;;;;29.80;28.65;98991.44;4936677;29;20077;-78
2023/05/05 10:45:15;;;;;;;3.72;1.30;;;;;;;29.56;28.61;98989.53;4974621;28;20132;-78
2023/05/05 10:47:40;;;;;;;2.72;1.50;;;;;;;29.41;28.96;98999.94;4996213;28;20041;-77
2023/05/05 10:50:12;;;;;;;2.38;1.20;;;;;;;29.28;29.46;98992.94;4979878;28;20037;-78
2023/05/05 10:52:55;;;;;;;2.90;1.40;;;;;;;29.16;29.14;98997.44;4980053;28;20037;-77
2023/05/05 10:55:40;;;;;;;4.00;1.38;;;;;;;28.98;29.86;98988.41;5013685;28;20038;-78
2023/05/05 10:58:05;;;;;;;3.03;1.70;;;;;;;28.86;30.15;98995.63;4979854;28;20420;-78
2023/05/05 11:00:47;;;;;;;4.22;1.50;;;;;;;28.75;30.17;98997.28;4979516;28;20037;-77
2023/05/05 11:03:16;;;;;;;3.70;1.50;;;;;;;28.65;30.01;98992.44;4995557;28;20038;-78
2023/05/05 11:06:03;;;;;;;4.25;1.42;;;;;;;28.56;30.32;98990.25;5012753;28;20104;-79
2023/05/05 11:08:36;;;;;;;3.65;1.70;;;;;;;28.46;30.38;98985.44;5013225;28;20094;-78
2023/05/05 11:11:01;;;;;;;2.78;1.55;;;;;;;28.36;30.70;98977.94;4995326;28;20038;-77
2023/05/05 11:13:27;;;;;;;2.63;1.35;;;;;;;28.32;30.91;98982.97;5013268;28;20026;-77
2023/05/05 11:15:54;;;;;;;4.90;1.50;;;;;;;28.22;30.82;98977.28;4979660;28;20145;-78
2023/05/05 11:18:34;;;;;;;3.30;1.45;;;;;;;28.15;30.80;98984.63;4995378;28;20034;-78
2023/05/05 11:21:00;;;;;;;4.22;1.50;;;;;;;28.07;31.21;98984.91;5012770;28;20117;-78
2023/05/05 11:23:26;;;;;;;5.43;1.52;;;;;;;27.94;31.15;98981.38;4996382;28;20034;-78
2023/05/05 11:25:52;;;;;;;2.92;1.50;;;;;;;27.90;31.66;98972.09;4994927;28;20484;-78
2023/05/05 11:28:18;;;;;;;3.83;1.40;;;;;;;27.84;31.42;98972.97;4979113;28;20044;-78
2023/05/05 11:30:55;;;;;;;2.15;1.40;;;;;;;27.78;31.85;98965.81;4994524;28;20037;-78
2023/05/05 11:33:36;;;;;;;;;;;;;;;27.74;31.86;98967.34;4995430;28;20040;-78
2023/05/05 11:36:05;;;;;;;3.55;1.30;;;;;;;27.67;31.81;98955.84;5027827;28;20313;-78